createdAt,value
2023-02-02T00:01:35.384Z,76.97
2023-02-02T00:04:03.356Z,76.96
2023-02-02T00:06:31.816Z,76.96
2023-02-02T00:09:00.865Z,76.99
2023-02-02T00:11:28.904Z,76.91
2023-02-02T00:13:56.831Z,76.78
2023-02-02T00:16:27.633Z,76.94
2023-02-02T00:18:56.988Z,77.01
2023-02-02T00:21:24.964Z,76.70
2023-02-02T00:23:52.898Z,76.71
2023-02-02T00:26:20.958Z,76.84
2023-02-02T00:28:49.084Z,76.83
2023-02-02T00:31:16.982Z,76.71
2023-02-02T00:33:48.654Z,76.84
2023-02-02T00:36:16.997Z,77.33
2023-02-02T00:38:44.866Z,77.16
2023-02-02T00:41:12.660Z,77.65
2023-02-02T00:43:40.631Z,77.18
2023-02-02T00:46:10.803Z,77.13
2023-02-02T00:48:38.878Z,77.28
2023-02-02T00:51:06.894Z,77.33
2023-02-02T00:53:34.783Z,77.07
2023-02-02T00:56:02.747Z,77.05
2023-02-02T00:58:30.560Z,77.23
2023-02-02T01:00:58.278Z,77.15
2023-02-02T01:03:26.204Z,77.60
2023-02-02T01:05:54.050Z,77.42
2023-02-02T01:08:21.888Z,77.27
2023-02-02T01:10:49.644Z,77.20
2023-02-02T01:13:17.528Z,77.13
2023-02-02T01:15:45.320Z,77.02
2023-02-02T01:18:13.132Z,77.24
2023-02-02T01:20:41.422Z,77.60
2023-02-02T01:23:09.256Z,77.98
2023-02-02T01:25:39.654Z,78.11
2023-02-02T01:28:07.578Z,78.22
2023-02-02T01:30:35.423Z,78.40
2023-02-02T01:33:03.275Z,78.46
2023-02-02T01:35:31.247Z,78.77
2023-02-02T01:37:59.016Z,78.79
2023-02-02T01:40:26.895Z,78.98
2023-02-02T01:42:54.703Z,78.99
2023-02-02T01:45:26.269Z,79.02
2023-02-02T01:47:56.888Z,79.02
2023-02-02T01:50:28.369Z,78.97
2023-02-02T01:52:56.902Z,79.04
2023-02-02T01:55:26.113Z,79.32
2023-02-02T01:58:15.801Z,79.38
2023-02-02T02:00:45.094Z,79.48
2023-02-02T02:03:16.602Z,79.19
2023-02-02T02:06:02.437Z,79.13
2023-02-02T02:08:32.065Z,79.27
2023-02-02T02:11:00.007Z,79.39
2023-02-02T02:13:48.644Z,79.54
2023-02-02T02:16:48.797Z,79.86
2023-02-02T02:19:22.591Z,80.30
2023-02-02T02:22:17.509Z,80.15
2023-02-02T02:25:32.975Z,80.67
2023-02-02T02:28:19.338Z,80.88
2023-02-02T02:30:50.344Z,81.24
2023-02-02T02:33:56.059Z,81.69
2023-02-02T02:36:34.680Z,82.22
2023-02-02T02:39:14.245Z,82.12
2023-02-02T02:41:47.541Z,82.57
2023-02-02T02:44:15.950Z,82.52
2023-02-02T02:46:44.074Z,82.93
2023-02-02T02:49:13.187Z,83.02
2023-02-02T02:51:41.060Z,83.19
2023-02-02T02:54:08.972Z,83.18
2023-02-02T02:56:58.282Z,83.17
2023-02-02T02:59:30.319Z,83.94
2023-02-02T03:02:31.607Z,84.45
2023-02-02T03:05:34.406Z,85.28
2023-02-02T03:08:33.685Z,86.67
2023-02-02T03:11:01.620Z,88.30
2023-02-02T03:13:29.455Z,89.49
2023-02-02T03:15:57.355Z,90.39
2023-02-02T03:18:29.043Z,91.20
2023-02-02T03:20:56.893Z,91.92
2023-02-02T03:23:24.763Z,92.03
2023-02-02T03:25:52.655Z,92.44
2023-02-02T03:28:20.513Z,93.96
2023-02-02T03:30:48.516Z,93.88
2023-02-02T03:33:16.449Z,95.16
2023-02-02T03:35:44.185Z,95.89
2023-02-02T03:38:13.719Z,96.88
2023-02-02T03:40:41.731Z,97.90
2023-02-02T03:43:09.527Z,98.21
2023-02-02T03:45:38.620Z,98.76
2023-02-02T03:48:06.950Z,99.18
2023-02-02T03:50:35.084Z,99.73
2023-02-02T03:53:02.845Z,99.33
2023-02-02T03:55:30.624Z,100.00
2023-02-02T03:57:58.387Z,99.99
2023-02-02T04:00:26.384Z,100.00
2023-02-02T04:02:55.143Z,100.00
2023-02-02T04:05:23.394Z,100.00
2023-02-02T04:07:51.339Z,100.00
2023-02-02T04:10:19.595Z,100.00
2023-02-02T04:12:47.658Z,100.00
2023-02-02T04:15:15.509Z,100.00
2023-02-02T04:17:43.312Z,100.00
2023-02-02T04:20:11.987Z,100.00
2023-02-02T04:22:39.829Z,100.00
2023-02-02T04:25:08.103Z,100.00
2023-02-02T04:27:35.910Z,100.00
2023-02-02T04:30:04.057Z,100.00
2023-02-02T04:32:31.816Z,100.00
2023-02-02T04:34:59.596Z,100.00
2023-02-02T04:37:27.721Z,99.99
2023-02-02T04:39:56.573Z,100.00
2023-02-02T04:42:24.413Z,99.92
2023-02-02T04:44:52.238Z,99.53
2023-02-02T04:47:20.146Z,99.76
2023-02-02T04:49:47.960Z,99.29
2023-02-02T04:52:15.743Z,99.31
2023-02-02T04:54:43.557Z,99.21
2023-02-02T04:57:11.326Z,98.78
2023-02-02T04:59:41.933Z,98.92
2023-02-02T05:02:10.437Z,98.58
2023-02-02T05:04:38.272Z,98.50
2023-02-02T05:07:06.179Z,98.73
2023-02-02T05:09:33.903Z,98.69
2023-02-02T05:12:01.707Z,98.39
2023-02-02T05:14:29.486Z,98.16
2023-02-02T05:16:57.348Z,98.59
2023-02-02T05:19:25.222Z,98.12
2023-02-02T05:21:53.069Z,98.25
2023-02-02T05:24:20.886Z,98.49
2023-02-02T05:26:48.688Z,98.44
2023-02-02T05:29:16.504Z,98.21
2023-02-02T05:31:44.202Z,98.48
2023-02-02T05:34:12.599Z,98.14
2023-02-02T05:36:40.467Z,98.55
2023-02-02T05:39:08.194Z,98.35
2023-02-02T05:41:36.001Z,98.98
2023-02-02T05:44:04.072Z,98.44
2023-02-02T05:46:31.939Z,98.47
2023-02-02T05:49:06.077Z,98.23
2023-02-02T05:52:01.250Z,98.48
2023-02-02T05:54:29.051Z,98.32
2023-02-02T05:56:58.093Z,97.88
2023-02-02T05:59:26.329Z,97.94
2023-02-02T06:01:54.166Z,97.54
2023-02-02T06:04:21.924Z,98.22
2023-02-02T06:06:49.711Z,97.16
2023-02-02T06:09:17.578Z,97.28
2023-02-02T06:11:46.030Z,97.32
2023-02-02T06:14:14.661Z,96.97
2023-02-02T06:16:42.475Z,96.94
2023-02-02T06:19:10.387Z,96.60
2023-02-02T06:21:38.333Z,96.35
2023-02-02T06:24:06.437Z,96.54
2023-02-02T06:26:34.399Z,96.29
2023-02-02T06:29:02.474Z,96.34
2023-02-02T06:31:30.408Z,96.23
2023-02-02T06:33:59.363Z,96.20
2023-02-02T06:36:27.854Z,96.22
2023-02-02T06:38:56.672Z,96.04
2023-02-02T06:41:24.766Z,95.64
2023-02-02T06:43:53.176Z,96.08
2023-02-02T06:46:21.105Z,95.58
2023-02-02T06:48:48.880Z,95.32
2023-02-02T06:51:16.769Z,94.65
2023-02-02T06:53:44.582Z,94.95
2023-02-02T06:56:13.648Z,94.70
2023-02-02T06:58:41.486Z,94.61
2023-02-02T07:01:11.151Z,94.48
2023-02-02T07:03:39.190Z,94.80
2023-02-02T07:06:15.040Z,94.49
2023-02-02T07:09:01.712Z,100.00
2023-02-02T07:11:32.987Z,94.62
2023-02-02T07:14:02.406Z,94.10
2023-02-02T07:16:30.326Z,96.32
2023-02-02T07:18:58.802Z,92.89
2023-02-02T07:21:29.433Z,91.75
2023-02-02T07:23:57.421Z,92.43
2023-02-02T07:26:25.241Z,92.75
2023-02-02T07:28:53.088Z,93.36
2023-02-02T07:31:24.996Z,93.41
2023-02-02T07:33:53.209Z,93.40
2023-02-02T07:36:22.083Z,93.40
2023-02-02T07:38:50.150Z,93.62
2023-02-02T07:41:18.196Z,94.24
2023-02-02T07:43:48.631Z,94.10
2023-02-02T07:46:16.689Z,94.27
2023-02-02T07:48:44.550Z,94.14
2023-02-02T07:51:17.076Z,94.33
2023-02-02T07:53:48.613Z,94.23
2023-02-02T07:56:21.316Z,94.39
2023-02-02T07:58:49.258Z,94.52
2023-02-02T08:01:17.639Z,94.50
2023-02-02T08:03:45.602Z,94.74
2023-02-02T08:06:19.390Z,94.72
2023-02-02T08:08:47.761Z,94.68
2023-02-02T08:11:16.774Z,94.73
2023-02-02T08:13:44.885Z,94.97
2023-02-02T08:16:13.080Z,95.02
2023-02-02T08:18:41.159Z,94.90
2023-02-02T08:21:13.291Z,94.91
2023-02-02T08:23:41.740Z,94.84
2023-02-02T08:26:14.941Z,94.44
2023-02-02T08:28:43.522Z,94.34
2023-02-02T08:31:12.121Z,94.28
2023-02-02T08:33:40.483Z,93.69
2023-02-02T08:36:19.353Z,93.60
2023-02-02T08:38:47.413Z,93.46
2023-02-02T08:41:16.761Z,93.34
2023-02-02T08:43:44.900Z,93.20
2023-02-02T08:46:14.624Z,92.95
2023-02-02T08:48:42.610Z,92.83
2023-02-02T08:51:12.418Z,92.86
2023-02-02T08:53:40.289Z,92.17
2023-02-02T08:56:13.353Z,92.04
2023-02-02T08:58:41.143Z,92.15
2023-02-02T09:01:14.270Z,91.67
2023-02-02T09:03:43.059Z,91.53
2023-02-02T09:06:15.572Z,91.63
2023-02-02T09:08:43.835Z,90.95
2023-02-02T09:11:13.337Z,90.69
2023-02-02T09:13:41.514Z,90.57
2023-02-02T09:16:11.410Z,89.88
2023-02-02T09:18:39.665Z,89.93
2023-02-02T09:21:10.738Z,89.92
2023-02-02T09:23:39.938Z,89.62
2023-02-02T09:26:14.567Z,88.92
2023-02-02T09:28:43.651Z,88.74
2023-02-02T09:31:11.659Z,88.44
2023-02-02T09:33:40.397Z,87.92
2023-02-02T09:36:10.115Z,87.40
2023-02-02T09:38:38.603Z,87.34
2023-02-02T09:41:33.804Z,87.66
2023-02-02T09:44:15.379Z,87.09
2023-02-02T09:46:56.760Z,86.86
2023-02-02T09:49:34.117Z,86.80
2023-02-02T09:52:04.818Z,86.32
2023-02-02T09:54:42.072Z,86.70
2023-02-02T09:57:25.048Z,86.62
2023-02-02T09:59:53.368Z,86.38
2023-02-02T10:02:34.644Z,86.53
2023-02-02T10:05:08.283Z,86.19
2023-02-02T10:07:39.331Z,86.13
2023-02-02T10:10:36.628Z,86.21
2023-02-02T10:13:13.198Z,86.37
2023-02-02T10:15:52.876Z,86.32
2023-02-02T10:18:47.258Z,86.41
2023-02-02T10:21:38.992Z,86.51
2023-02-02T10:24:07.062Z,86.82
2023-02-02T10:26:39.836Z,86.81
2023-02-02T10:29:23.152Z,87.11
2023-02-02T10:32:26.364Z,87.15
2023-02-02T10:35:13.645Z,87.33
2023-02-02T10:38:16.393Z,87.07
2023-02-02T10:41:00.370Z,87.32
2023-02-02T10:44:03.419Z,87.33
2023-02-02T10:46:57.605Z,87.27
2023-02-02T10:49:25.624Z,87.25
2023-02-02T10:51:59.284Z,87.26
2023-02-02T10:54:55.794Z,87.20
2023-02-02T10:57:41.181Z,87.18
2023-02-02T11:00:27.621Z,87.17
2023-02-02T11:02:55.974Z,87.42
2023-02-02T11:05:47.529Z,87.43
2023-02-02T11:08:22.619Z,87.51
2023-02-02T11:10:53.504Z,87.84
2023-02-02T11:13:28.343Z,88.02
2023-02-02T11:16:18.008Z,88.08
2023-02-02T11:18:46.139Z,87.51
2023-02-02T11:21:19.117Z,87.63
2023-02-02T11:23:54.237Z,87.36
2023-02-02T11:26:22.188Z,87.10
2023-02-02T11:28:50.599Z,87.32
2023-02-02T11:31:35.208Z,87.02
2023-02-02T11:34:29.619Z,86.63
2023-02-02T11:37:02.180Z,86.46
2023-02-02T11:39:29.988Z,86.26
2023-02-02T11:42:18.069Z,86.50
2023-02-02T11:44:49.265Z,86.17
2023-02-02T11:47:28.406Z,86.00
2023-02-02T11:49:57.909Z,85.56
2023-02-02T11:52:29.600Z,85.07
2023-02-02T11:55:03.419Z,84.70
2023-02-02T11:57:32.157Z,84.49
2023-02-02T12:00:14.686Z,84.19
2023-02-02T12:02:49.788Z,84.04
2023-02-02T12:05:20.837Z,84.25
2023-02-02T12:07:49.615Z,84.13
2023-02-02T12:10:21.435Z,84.07
2023-02-02T12:13:14.012Z,84.00
2023-02-02T12:15:55.403Z,84.39
2023-02-02T12:18:47.585Z,83.97
2023-02-02T12:21:46.969Z,83.95
2023-02-02T12:24:32.479Z,84.06
2023-02-02T12:27:10.345Z,84.14
2023-02-02T12:29:43.943Z,85.42
2023-02-02T12:32:27.816Z,86.16
2023-02-02T12:35:06.222Z,85.84
2023-02-02T12:37:52.217Z,85.03
2023-02-02T12:40:50.502Z,85.12
2023-02-02T12:43:30.260Z,85.75
2023-02-02T12:46:23.692Z,85.76
2023-02-02T12:49:01.205Z,85.24
2023-02-02T12:51:32.657Z,85.74
2023-02-02T12:54:34.546Z,86.05
2023-02-02T12:57:40.179Z,86.03
2023-02-02T13:00:29.824Z,86.25
2023-02-02T13:03:00.360Z,86.62
2023-02-02T13:05:39.160Z,86.35
2023-02-02T13:08:11.974Z,86.55
2023-02-02T13:10:48.601Z,86.48
2023-02-02T13:13:19.704Z,86.04
2023-02-02T13:16:08.279Z,86.41
2023-02-02T13:18:39.312Z,85.98
2023-02-02T13:21:09.309Z,85.85
2023-02-02T13:23:38.795Z,86.40
2023-02-02T13:26:32.147Z,86.53
2023-02-02T13:29:02.850Z,86.24
2023-02-02T13:31:55.908Z,86.11
2023-02-02T13:34:27.331Z,85.95
2023-02-02T13:37:03.177Z,85.98
2023-02-02T13:39:43.524Z,85.98
2023-02-02T13:42:21.516Z,85.41
2023-02-02T13:44:53.291Z,84.63
2023-02-02T13:47:24.441Z,84.81
2023-02-02T13:49:55.005Z,84.85
2023-02-02T13:52:53.604Z,84.34
2023-02-02T13:55:27.614Z,84.75
2023-02-02T13:58:20.546Z,84.50
2023-02-02T14:00:51.485Z,83.32
2023-02-02T14:03:39.766Z,82.63
2023-02-02T14:06:28.155Z,83.25
2023-02-02T14:09:03.515Z,83.34
2023-02-02T14:11:34.368Z,82.61
2023-02-02T14:14:36.293Z,83.17
2023-02-02T14:17:18.506Z,82.10
2023-02-02T14:19:53.130Z,82.74
2023-02-02T14:22:49.025Z,81.74
2023-02-02T14:25:34.518Z,82.45
2023-02-02T14:28:06.281Z,82.69
2023-02-02T14:30:36.009Z,82.66
2023-02-02T14:33:22.171Z,83.03
2023-02-02T14:35:49.885Z,82.80
2023-02-02T14:38:45.695Z,83.38
2023-02-02T14:41:41.687Z,83.13
2023-02-02T14:44:09.956Z,83.05
2023-02-02T14:46:41.837Z,82.53
2023-02-02T14:49:14.621Z,82.53
2023-02-02T14:51:54.383Z,82.98
2023-02-02T14:54:46.708Z,82.50
2023-02-02T14:57:28.243Z,82.43
2023-02-02T15:00:06.983Z,82.28
2023-02-02T15:02:38.866Z,82.44
2023-02-02T15:05:39.954Z,82.45
2023-02-02T15:08:27.167Z,82.72
2023-02-02T15:11:00.476Z,82.02
2023-02-02T15:13:30.411Z,82.49
2023-02-02T15:16:12.955Z,82.37
2023-02-02T15:18:44.491Z,82.59
2023-02-02T15:21:12.372Z,82.30
2023-02-02T15:23:42.744Z,82.60
2023-02-02T15:26:14.917Z,82.40
2023-02-02T15:28:42.680Z,82.84
2023-02-02T15:31:30.922Z,81.52
2023-02-02T15:34:00.960Z,81.60
2023-02-02T15:36:38.111Z,81.45
2023-02-02T15:39:15.409Z,80.76
2023-02-02T15:41:46.589Z,80.69
2023-02-02T15:44:22.077Z,81.54
2023-02-02T15:46:50.016Z,80.76
2023-02-02T15:49:32.884Z,80.60
2023-02-02T15:52:02.392Z,80.67
2023-02-02T15:54:30.160Z,80.31
2023-02-02T15:56:58.643Z,80.43
2023-02-02T15:59:28.379Z,80.38
2023-02-02T16:02:35.048Z,80.19
2023-02-02T16:05:03.079Z,79.75
2023-02-02T16:07:34.867Z,79.77
2023-02-02T16:10:05.107Z,79.76
2023-02-02T16:12:34.358Z,78.79
2023-02-02T16:15:02.374Z,79.07
2023-02-02T16:17:31.639Z,78.51
2023-02-02T16:20:10.436Z,78.21
2023-02-02T16:22:38.484Z,78.29
2023-02-02T16:25:17.731Z,78.18
2023-02-02T16:27:47.465Z,77.89
2023-02-02T16:30:29.180Z,78.73
2023-02-02T16:32:57.360Z,77.94
2023-02-02T16:35:35.161Z,78.43
2023-02-02T16:38:19.273Z,77.40
2023-02-02T16:40:49.961Z,78.23
2023-02-02T16:43:22.425Z,77.62
2023-02-02T16:46:19.571Z,77.66
2023-02-02T16:49:00.631Z,76.94
2023-02-02T16:51:29.054Z,76.90
2023-02-02T16:54:21.553Z,77.16
2023-02-02T16:56:53.310Z,77.39
2023-02-02T16:59:34.604Z,77.54
2023-02-02T17:02:23.493Z,77.32
2023-02-02T17:05:21.544Z,77.07
2023-02-02T17:07:51.506Z,77.44
2023-02-02T17:10:19.075Z,77.05
2023-02-02T17:12:46.987Z,77.50
2023-02-02T17:15:17.624Z,76.91
2023-02-02T17:17:49.394Z,76.86
2023-02-02T17:20:20.567Z,75.96
2023-02-02T17:22:56.695Z,76.45
2023-02-02T17:25:38.863Z,76.44
2023-02-02T17:28:09.039Z,76.27
2023-02-02T17:30:36.983Z,76.50
2023-02-02T17:33:05.103Z,76.54
2023-02-02T17:35:51.555Z,76.49
2023-02-02T17:38:21.926Z,76.30
2023-02-02T17:40:50.235Z,76.49
2023-02-02T17:43:18.075Z,75.97
2023-02-02T17:45:45.987Z,76.56
2023-02-02T17:48:14.473Z,76.17
2023-02-02T17:50:42.899Z,76.43
2023-02-02T17:53:21.515Z,76.81
2023-02-02T17:55:50.922Z,75.81
2023-02-02T17:58:19.165Z,75.89
2023-02-02T18:00:48.253Z,76.41
2023-02-02T18:03:34.546Z,75.97
2023-02-02T18:06:03.042Z,75.91
2023-02-02T18:08:31.475Z,75.71
2023-02-02T18:11:00.672Z,75.80
2023-02-02T18:13:28.761Z,76.47
2023-02-02T18:15:57.342Z,76.39
2023-02-02T18:18:25.204Z,76.29
2023-02-02T18:20:52.993Z,75.28
2023-02-02T18:23:20.892Z,75.32
2023-02-02T18:25:48.785Z,75.64
2023-02-02T18:28:18.493Z,75.59
2023-02-02T18:30:47.766Z,75.51
2023-02-02T18:33:15.987Z,75.58
2023-02-02T18:35:44.656Z,75.68
2023-02-02T18:38:12.522Z,75.92
2023-02-02T18:40:40.307Z,75.84
2023-02-02T18:43:08.248Z,75.65
2023-02-02T18:45:37.005Z,75.29
2023-02-02T18:48:05.184Z,75.04
2023-02-02T18:50:32.925Z,75.54
2023-02-02T18:53:00.766Z,75.50
2023-02-02T18:55:28.887Z,75.53
2023-02-02T18:57:57.149Z,75.78
2023-02-02T19:00:25.067Z,75.75
2023-02-02T19:02:52.954Z,75.65
2023-02-02T19:05:39.239Z,76.10
2023-02-02T19:08:07.276Z,76.33
2023-02-02T19:10:35.132Z,76.38
2023-02-02T19:13:16.920Z,76.57
2023-02-02T19:15:44.933Z,76.84
2023-02-02T19:18:18.623Z,76.82
2023-02-02T19:20:46.899Z,76.61
2023-02-02T19:23:19.231Z,76.88
2023-02-02T19:25:51.285Z,76.81
2023-02-02T19:28:30.940Z,76.80
2023-02-02T19:31:00.345Z,76.76
2023-02-02T19:33:37.630Z,76.67
2023-02-02T19:36:06.704Z,76.84
2023-02-02T19:38:34.532Z,76.95
2023-02-02T19:41:04.457Z,77.05
2023-02-02T19:43:32.889Z,76.80
2023-02-02T19:46:00.829Z,76.97
2023-02-02T19:48:31.081Z,76.54
2023-02-02T19:50:59.244Z,76.76
2023-02-02T19:53:32.115Z,77.08
2023-02-02T19:55:59.951Z,77.07
2023-02-02T19:58:30.063Z,77.13
2023-02-02T20:00:58.551Z,76.96
2023-02-02T20:03:35.321Z,76.98
2023-02-02T20:06:03.210Z,77.07
2023-02-02T20:08:42.950Z,77.10
2023-02-02T20:11:16.995Z,77.00
2023-02-02T20:13:49.444Z,77.06
2023-02-02T20:16:20.609Z,77.42
2023-02-02T20:18:54.949Z,77.79
2023-02-02T20:21:39.329Z,77.64
2023-02-02T20:24:26.884Z,77.66
2023-02-02T20:26:59.578Z,78.31
2023-02-02T20:29:31.026Z,78.06
2023-02-02T20:31:59.360Z,77.98
2023-02-02T20:34:30.847Z,78.39
2023-02-02T20:37:02.990Z,78.08
2023-02-02T20:39:37.317Z,78.39
2023-02-02T20:42:05.191Z,78.50
2023-02-02T20:44:33.722Z,78.42
2023-02-02T20:47:01.659Z,78.69
2023-02-02T20:49:32.762Z,78.35
2023-02-02T20:52:01.962Z,78.46
2023-02-02T20:54:30.072Z,78.73
2023-02-02T20:56:57.806Z,78.72
2023-02-02T20:59:25.619Z,78.47
2023-02-02T21:01:54.191Z,78.35
2023-02-02T21:04:22.101Z,78.23
2023-02-02T21:06:51.253Z,78.46
2023-02-02T21:09:19.210Z,78.50
2023-02-02T21:11:47.058Z,78.25
2023-02-02T21:14:15.005Z,78.53
2023-02-02T21:16:42.881Z,78.52
2023-02-02T21:19:10.822Z,78.88
2023-02-02T21:21:38.733Z,78.79
2023-02-02T21:24:07.038Z,78.97
2023-02-02T21:26:34.829Z,78.77
2023-02-02T21:29:02.594Z,78.82
2023-02-02T21:31:30.858Z,79.11
2023-02-02T21:33:58.694Z,78.99
2023-02-02T21:36:36.377Z,79.20
2023-02-02T21:39:22.731Z,79.44
2023-02-02T21:41:51.133Z,79.42
2023-02-02T21:44:20.680Z,79.59
2023-02-02T21:46:49.481Z,80.32
2023-02-02T21:49:28.904Z,80.48
2023-02-02T21:51:58.601Z,80.68
2023-02-02T21:54:28.021Z,80.98
2023-02-02T21:56:55.937Z,80.99
2023-02-02T21:59:25.263Z,81.36
2023-02-02T22:01:53.362Z,81.19
2023-02-02T22:04:23.369Z,81.54
2023-02-02T22:07:00.915Z,81.51
2023-02-02T22:09:39.859Z,81.79
2023-02-02T22:12:18.359Z,82.31
2023-02-02T22:14:46.542Z,82.27
2023-02-02T22:17:32.730Z,82.33
2023-02-02T22:20:02.452Z,82.64
2023-02-02T22:22:35.087Z,82.56
2023-02-02T22:25:29.858Z,83.26
2023-02-02T22:27:59.001Z,84.12
2023-02-02T22:30:27.100Z,83.26
2023-02-02T22:32:55.611Z,83.77
2023-02-02T22:35:23.439Z,84.15
2023-02-02T22:37:52.572Z,84.92
2023-02-02T22:40:23.546Z,84.99
2023-02-02T22:42:52.690Z,84.87
2023-02-02T22:45:20.624Z,84.35
2023-02-02T22:47:48.892Z,85.09
2023-02-02T22:50:20.653Z,84.61
2023-02-02T22:52:48.473Z,84.86
2023-02-02T22:55:16.471Z,85.24
2023-02-02T22:57:44.384Z,85.63
2023-02-02T23:00:13.944Z,85.63
2023-02-02T23:02:41.991Z,85.78
2023-02-02T23:05:11.164Z,85.74
2023-02-02T23:07:39.160Z,85.80
2023-02-02T23:10:07.971Z,85.65
2023-02-02T23:12:35.792Z,85.91
2023-02-02T23:15:03.646Z,85.77
2023-02-02T23:17:32.911Z,86.02
2023-02-02T23:20:00.808Z,86.08
2023-02-02T23:22:28.573Z,85.95
2023-02-02T23:24:56.353Z,85.80
2023-02-02T23:27:24.079Z,86.04
2023-02-02T23:29:51.877Z,86.00
2023-02-02T23:32:19.631Z,85.90
2023-02-02T23:34:47.463Z,85.74
2023-02-02T23:37:15.272Z,85.81
2023-02-02T23:39:43.014Z,85.93
2023-02-02T23:42:10.827Z,86.04
2023-02-02T23:44:38.606Z,86.23
2023-02-02T23:47:06.422Z,85.99
2023-02-02T23:49:34.330Z,85.69
2023-02-02T23:52:02.208Z,85.64
2023-02-02T23:54:30.045Z,86.01
2023-02-02T23:56:58.186Z,85.69
2023-02-02T23:59:25.935Z,85.70
